M I D A S
Marine Information and Data Acquisition System
Tripno 454 of the Zeeleeuw from 2003-03-24 07:33:44 to 2003-03-24 16:04:33
Back to CruiseResearch ActivitiesStationsMapUnderway DataData graphs

EquipmentUnitsComments
TimeDGPSUTC
LatitudeDGPSDM.mWGS84
LongitudeDGPSDM.mWGS84
SpeedMeteo Stationm/sRelative wind speed
DirectionMeteo StationdegRelative wind direction
TemperatureMeteo Stationdeg CelciusAir temperature
PressureMeteo StationPaAtmospheric pressure
HumidityMeteo Station%Relative humidity
Missing or incorrect values are displayed as -999
Metereological data collected by the RV Zeeleeuw from 2003-03-24 07:33:44 to 2003-03-24 16:04:33
                                                                                    Next 1000 lines
Time Latitude Longitude Speed Direction Temperature Pressure Humidity
2003-03-24 07:33:52 51°13.597 2°56.105 3.5 306 9.7 102400 53
2003-03-24 07:33:57 51°13.597 2°56.105 3.9 317 9.7 102400 53
2003-03-24 07:34:02 51°13.597 2°56.105 3.7 273 9.7 102400 53
2003-03-24 07:34:07 51°13.598 2°56.105 2.5 320 9.7 102400 53
2003-03-24 07:34:12 51°13.599 2°56.106 2.5 320 9.7 102400 53
2003-03-24 07:34:17 51°13.6 2°56.106 3.3 317 9.7 102400 53
2003-03-24 07:34:21 51°13.599 2°56.105 2.9 287 9.7 102390 54
2003-03-24 07:34:27 51°13.598 2°56.105 3.1 317 9.7 102390 54
2003-03-24 07:34:32 51°13.598 2°56.105 3.4 315 9.7 102400 54
2003-03-24 07:34:37 51°13.598 2°56.105 3.8 311 9.7 102400 54
2003-03-24 07:34:41 51°13.597 2°56.105 3.9 279 9.7 102400 54
2003-03-24 07:34:47 51°13.598 2°56.105 3.8 280 9.7 102400 54
2003-03-24 07:34:51 51°13.598 2°56.105 4.4 288 9.7 102390 54
2003-03-24 07:34:57 51°13.598 2°56.105 4.7 264 9.7 102390 54
2003-03-24 07:35:01 51°13.598 2°56.105 4.6 274 9.7 102400 54
2003-03-24 07:35:07 51°13.599 2°56.105 4.7 285 9.7 102400 54
2003-03-24 07:35:11 51°13.598 2°56.103 4.7 275 9.7 102390 53
2003-03-24 07:35:17 51°13.597 2°56.103 4 258 9.7 102390 53
2003-03-24 07:35:21 51°13.597 2°56.103 3.4 272 9.7 102390 53
2003-03-24 07:35:27 51°13.597 2°56.102 2.5 265 9.7 102390 53
2003-03-24 07:35:31 51°13.597 2°56.102 2.6 280 9.7 102400 53
2003-03-24 07:35:36 51°13.597 2°56.1 4.3 279 9.7 102400 53
2003-03-24 07:35:41 51°13.598 2°56.098 3.2 305 9.7 102390 53
2003-03-24 07:35:47 51°13.599 2°56.094 3.2 263 9.7 102390 53
2003-03-24 07:35:52 51°13.601 2°56.09 3.6 249 9.7 102400 54
2003-03-24 07:35:57 51°13.602 2°56.085 3.2 235 9.7 102400 54
2003-03-24 07:36:03 51°13.604 2°56.079 3.4 245 9.7 102400 53
2003-03-24 07:36:08 51°13.606 2°56.072 3.4 254 9.7 102400 53
2003-03-24 07:36:13 51°13.607 2°56.066 3.5 252 9.7 102400 53
2003-03-24 07:36:18 51°13.608 2°56.059 4 250 9.7 102400 53
2003-03-24 07:36:23 51°13.61 2°56.053 2.9 248 9.7 102390 54
2003-03-24 07:36:28 51°13.612 2°56.045 4.6 221 9.7 102390 54
2003-03-24 07:36:33 51°13.613 2°56.038 4 238 9.7 102390 54
2003-03-24 07:36:38 51°13.615 2°56.031 4.2 234 9.7 102390 54
2003-03-24 07:36:43 51°13.616 2°56.026 4.4 240 9.7 102400 54
2003-03-24 07:36:47 51°13.616 2°56.023 5.2 269 9.7 102400 54
2003-03-24 07:36:51 51°13.617 2°56.021 5.2 258 9.8 102390 54
2003-03-24 07:36:57 51°13.617 2°56.018 4.5 271 9.8 102390 54
2003-03-24 07:37:01 51°13.617 2°56.016 4.1 284 9.7 102390 53
2003-03-24 07:37:07 51°13.617 2°56.013 3.3 267 9.7 102390 53
2003-03-24 07:37:12 51°13.617 2°56.01 4 280 9.7 102390 54
2003-03-24 07:37:17 51°13.618 2°56.007 3.6 246 9.7 102390 54
2003-03-24 07:37:22 51°13.618 2°56.004 3.8 246 9.7 102390 53
2003-03-24 07:37:27 51°13.619 2°56 3.4 245 9.7 102390 53
2003-03-24 07:37:32 51°13.621 2°55.995 3 258 9.7 102390 53
2003-03-24 07:37:37 51°13.624 2°55.991 2.3 264 9.7 102390 53
2003-03-24 07:37:43 51°13.628 2°55.985 2.3 254 9.7 102390 54
2003-03-24 07:37:48 51°13.63 2°55.978 2.5 248 9.7 102390 54
2003-03-24 07:37:53 51°13.632 2°55.97 2.4 275 9.7 102400 54
2003-03-24 07:37:58 51°13.635 2°55.963 2.1 257 9.7 102400 54
2003-03-24 07:38:03 51°13.637 2°55.955 2.2 253 9.7 102400 54
2003-03-24 07:38:08 51°13.638 2°55.946 2.1 237 9.7 102400 54
2003-03-24 07:38:13 51°13.641 2°55.937 1.7 194 9.7 102390 54
2003-03-24 07:38:18 51°13.644 2°55.928 3.5 248 9.7 102390 54
2003-03-24 07:38:23 51°13.647 2°55.92 2.8 262 9.7 102400 54
2003-03-24 07:38:29 51°13.651 2°55.909 2 240 9.7 102400 54
2003-03-24 07:38:33 51°13.655 2°55.902 1.6 238 9.7 102400 54
2003-03-24 07:38:38 51°13.659 2°55.892 1.7 185 9.7 102400 54
2003-03-24 07:38:43 51°13.663 2°55.883 1.6 215 9.7 102400 54
2003-03-24 07:38:48 51°13.667 2°55.874 1.5 196 9.7 102400 54
2003-03-24 07:38:53 51°13.67 2°55.865 1.5 185 9.7 102390 54
2003-03-24 07:38:58 51°13.673 2°55.855 3.6 236 9.7 102390 54
2003-03-24 07:39:03 51°13.675 2°55.846 3.3 208 9.7 102390 54
2003-03-24 07:39:09 51°13.677 2°55.834 5 229 9.7 102390 54
2003-03-24 07:39:13 51°13.679 2°55.826 2.2 236 9.7 102400 54
2003-03-24 07:39:17 51°13.681 2°55.819 5.1 238 9.7 102400 54
2003-03-24 07:39:23 51°13.684 2°55.807 5.1 243 9.7 102400 54
2003-03-24 07:39:28 51°13.687 2°55.798 4.7 241 9.7 102400 54
2003-03-24 07:39:33 51°13.689 2°55.789 4.8 246 9.7 102400 54
2003-03-24 07:39:38 51°13.692 2°55.781 4.5 249 9.7 102400 54
2003-03-24 07:39:43 51°13.692 2°55.772 4.3 239 9.7 102390 54
2003-03-24 07:39:47 51°13.692 2°55.765 4 234 9.7 102390 54
2003-03-24 07:39:52 51°13.693 2°55.756 3.6 237 9.7 102390 54
2003-03-24 07:39:57 51°13.694 2°55.748 3.6 224 9.7 102390 54
2003-03-24 07:40:01 51°13.695 2°55.743 3.4 243 9.7 102390 54
2003-03-24 07:40:07 51°13.695 2°55.737 3.9 235 9.7 102390 54
2003-03-24 07:40:12 51°13.696 2°55.734 3.3 239 9.7 102390 54
2003-03-24 07:40:17 51°13.696 2°55.732 3.9 227 9.7 102390 54
2003-03-24 07:40:22 51°13.696 2°55.73 4.1 220 9.7 102390 54
2003-03-24 07:40:27 51°13.696 2°55.729 3.5 240 9.7 102390 54
2003-03-24 07:40:30 51°13.697 2°55.729 3.4 316 9.7 102390 54
2003-03-24 07:40:37 51°13.699 2°55.729 3 223 9.7 102390 54
2003-03-24 07:40:42 51°13.7 2°55.729 2.8 221 9.7 102390 54
2003-03-24 07:40:47 51°13.702 2°55.73 3.1 212 9.7 102390 54
2003-03-24 07:40:52 51°13.703 2°55.731 3.6 219 9.7 102390 54
2003-03-24 07:40:57 51°13.705 2°55.732 3 208 9.7 102390 54
2003-03-24 07:41:01 51°13.707 2°55.733 3.5 202 9.7 102390 55
2003-03-24 07:41:07 51°13.71 2°55.734 2.7 202 9.7 102390 55
2003-03-24 07:41:12 51°13.713 2°55.734 2.3 191 9.8 102390 54
2003-03-24 07:41:17 51°13.716 2°55.734 1.8 179 9.8 102390 54
2003-03-24 07:41:21 51°13.719 2°55.731 1.4 174 9.8 102390 54
2003-03-24 07:41:27 51°13.724 2°55.727 2.2 144 9.8 102390 54
2003-03-24 07:41:32 51°13.728 2°55.724 2.4 145 9.8 102390 54
2003-03-24 07:41:37 51°13.732 2°55.722 3.7 122 9.8 102390 54
2003-03-24 07:41:41 51°13.736 2°55.721 3.8 107 9.8 102390 54
2003-03-24 07:41:47 51°13.741 2°55.717 3.2 120 9.8 102390 54
2003-03-24 07:41:51 51°13.745 2°55.715 4 115 9.8 102390 54
2003-03-24 07:41:57 51°13.75 2°55.712 2.7 114 9.8 102390 54
2003-03-24 07:42:02 51°13.754 2°55.708 2.4 99 9.8 102400 54
2003-03-24 07:42:07 51°13.758 2°55.703 1.9 139 9.8 102400 54
2003-03-24 07:42:12 51°13.763 2°55.698 2.4 152 9.8 102390 54
2003-03-24 07:42:17 51°13.767 2°55.694 2 123 9.8 102390 54
2003-03-24 07:42:20 51°13.77 2°55.691 1.6 131 9.8 102390 54
2003-03-24 07:42:27 51°13.777 2°55.684 1.1 110 9.8 102390 54
2003-03-24 07:42:31 51°13.781 2°55.68 0.7 98 9.8 102390 54
2003-03-24 07:42:37 51°13.789 2°55.673 0.9 130 9.8 102390 54
2003-03-24 07:42:41 51°13.794 2°55.669 0.8 130 9.8 102390 54
2003-03-24 07:42:47 51°13.802 2°55.662 0.9 118 9.8 102390 54
2003-03-24 07:42:51 51°13.808 2°55.657 0.6 118 9.9 102390 54
2003-03-24 07:42:57 51°13.817 2°55.65 0.7 74 9.9 102390 54
2003-03-24 07:43:02 51°13.825 2°55.644 0.6 62 9.9 102390 54
2003-03-24 07:43:07 51°13.832 2°55.638 0.6 72 9.9 102390 54
2003-03-24 07:43:11 51°13.838 2°55.633 0.5 76 9.9 102390 54
2003-03-24 07:43:17 51°13.848 2°55.625 0.4 54 9.9 102390 54
2003-03-24 07:43:21 51°13.854 2°55.619 0.3 317 9.9 102390 54
2003-03-24 07:43:27 51°13.864 2°55.611 0.8 108 9.9 102390 54
2003-03-24 07:43:32 51°13.873 2°55.605 0.9 114 9.9 102390 54
2003-03-24 07:43:37 51°13.882 2°55.598 0.8 80 9.9 102390 54
2003-03-24 07:43:41 51°13.888 2°55.593 0.5 115 9.9 102390 54
2003-03-24 07:43:47 51°13.898 2°55.584 0.4 128 9.9 102390 54
2003-03-24 07:43:52 51°13.907 2°55.577 0.3 127 10 102390 54
2003-03-24 07:43:57 51°13.916 2°55.571 0.2 89 10 102390 54
2003-03-24 07:44:01 51°13.923 2°55.565 0.4 49 10 102390 54
2003-03-24 07:44:07 51°13.934 2°55.557 1.8 73 10 102390 54
2003-03-24 07:44:12 51°13.944 2°55.55 1.6 50 10 102390 54
2003-03-24 07:44:17 51°13.954 2°55.544 1.7 121 10 102390 54
2003-03-24 07:44:21 51°13.961 2°55.538 1.3 106 10 102390 54
2003-03-24 07:44:27 51°13.973 2°55.531 1.8 111 10 102390 54
2003-03-24 07:44:32 51°13.983 2°55.524 1.9 134 10 102390 53
2003-03-24 07:44:37 51°13.992 2°55.518 2.3 160 10 102390 53
2003-03-24 07:44:41 51°14 2°55.513 2.6 152 10.1 102390 53
2003-03-24 07:44:47 51°14.012 2°55.504 1.6 143 10.1 102390 53
2003-03-24 07:44:51 51°14.019 2°55.499 1.9 148 10.1 102390 53
2003-03-24 07:44:57 51°14.031 2°55.491 1.7 108 10.1 102390 53
2003-03-24 07:45:02 51°14.04 2°55.484 1.2 106 10.1 102390 53
2003-03-24 07:45:06 51°14.048 2°55.478 2 24 10.1 102390 53
2003-03-24 07:45:12 51°14.059 2°55.469 1.6 90 10.1 102390 52
2003-03-24 07:45:17 51°14.068 2°55.462 1.1 67 10.1 102390 52
2003-03-24 07:45:21 51°14.076 2°55.456 1.6 317 10.2 102390 53
2003-03-24 07:45:27 51°14.087 2°55.447 1.9 72 10.2 102390 53
2003-03-24 07:45:32 51°14.096 2°55.44 2.6 58 10.2 102390 53
2003-03-24 07:45:37 51°14.106 2°55.433 2.2 65 10.2 102390 53
2003-03-24 07:45:41 51°14.114 2°55.427 1.7 58 10.2 102390 53
2003-03-24 07:45:47 51°14.127 2°55.419 2.4 63 10.2 102390 53
2003-03-24 07:45:51 51°14.135 2°55.413 2.3 58 10.3 102390 53
2003-03-24 07:45:57 51°14.148 2°55.402 1.9 97 10.3 102390 53
2003-03-24 07:46:01 51°14.156 2°55.395 3.5 68 10.3 102390 53
2003-03-24 07:46:07 51°14.169 2°55.383 2.5 66 10.3 102390 53
2003-03-24 07:46:11 51°14.177 2°55.375 3.1 96 10.3 102390 53
2003-03-24 07:46:17 51°14.19 2°55.362 3.6 52 10.3 102390 53
2003-03-24 07:46:21 51°14.199 2°55.352 2.8 42 10.3 102390 52
2003-03-24 07:46:27 51°14.211 2°55.336 3.5 49 10.3 102390 52
2003-03-24 07:46:32 51°14.221 2°55.322 3.5 57 10.3 102390 51
2003-03-24 07:46:37 51°14.23 2°55.308 4.2 91 10.3 102390 51
2003-03-24 07:46:41 51°14.238 2°55.296 4.1 60 10.3 102390 51
2003-03-24 07:46:47 51°14.25 2°55.277 4.6 38 10.3 102390 51
2003-03-24 07:46:51 51°14.258 2°55.265 4.9 60 10.4 102390 51
2003-03-24 07:46:57 51°14.269 2°55.245 3.2 75 10.4 102390 51
2003-03-24 07:47:02 51°14.279 2°55.229 3.5 95 10.4 102390 52
2003-03-24 07:47:07 51°14.288 2°55.212 4.3 60 10.4 102390 52
2003-03-24 07:47:12 51°14.297 2°55.196 4.4 68 10.4 102390 52
2003-03-24 07:47:17 51°14.306 2°55.179 5.9 54 10.4 102390 52
2003-03-24 07:47:22 51°14.315 2°55.162 6 56 10.4 102390 51
2003-03-24 07:47:27 51°14.324 2°55.145 5.2 99 10.4 102390 51
2003-03-24 07:47:31 51°14.331 2°55.131 6.6 91 10.5 102380 51
2003-03-24 07:47:37 51°14.342 2°55.11 8.4 70 10.5 102380 51
2003-03-24 07:47:41 51°14.349 2°55.096 6.9 54 10.5 102380 51
2003-03-24 07:47:47 51°14.36 2°55.075 4.4 46 10.5 102380 51
2003-03-24 07:47:52 51°14.369 2°55.057 4.9 87 10.5 102380 51
2003-03-24 07:47:57 51°14.378 2°55.04 4.6 48 10.5 102380 51
2003-03-24 07:48:01 51°14.386 2°55.025 5.7 63 10.5 102380 51
2003-03-24 07:48:07 51°14.397 2°55.003 7.5 82 10.5 102380 51
2003-03-24 07:48:11 51°14.405 2°54.988 7 66 10.5 102380 51
2003-03-24 07:48:17 51°14.416 2°54.966 4.1 72 10.5 102380 51
2003-03-24 07:48:22 51°14.427 2°54.949 7 71 10.5 102380 51
2003-03-24 07:48:27 51°14.439 2°54.932 6.4 72 10.5 102380 51
2003-03-24 07:48:32 51°14.451 2°54.917 7.1 72 10.6 102370 50
2003-03-24 07:48:37 51°14.463 2°54.902 3.8 103 10.6 102370 50
2003-03-24 07:48:41 51°14.474 2°54.89 4.4 121 10.6 102370 50
2003-03-24 07:48:47 51°14.49 2°54.873 4.6 93 10.6 102370 50
2003-03-24 07:48:52 51°14.504 2°54.859 4.5 84 10.7 102370 50
2003-03-24 07:48:57 51°14.518 2°54.845 3.7 69 10.7 102370 50
2003-03-24 07:49:01 51°14.529 2°54.834 3.6 91 10.7 102370 49
2003-03-24 07:49:07 51°14.546 2°54.817 6.2 96 10.7 102370 49
2003-03-24 07:49:12 51°14.56 2°54.803 5.3 93 10.7 102370 49
2003-03-24 07:49:17 51°14.574 2°54.788 5.3 66 10.7 102370 49
2003-03-24 07:49:21 51°14.586 2°54.777 5.4 72 10.8 102380 51
2003-03-24 07:49:27 51°14.603 2°54.76 6.7 82 10.8 102380 51
2003-03-24 07:49:32 51°14.618 2°54.746 6.1 69 10.8 102370 50
2003-03-24 07:49:37 51°14.632 2°54.733 5.3 66 10.8 102370 50
2003-03-24 07:49:42 51°14.647 2°54.72 4.7 72 10.8 102370 51
2003-03-24 07:49:47 51°14.662 2°54.707 4.4 84 10.8 102370 51
2003-03-24 07:49:52 51°14.677 2°54.694 3.8 81 10.8 102380 51
2003-03-24 07:49:57 51°14.692 2°54.682 4.4 97 10.8 102380 51
2003-03-24 07:50:01 51°14.704 2°54.672 3.9 99 10.8 102370 51
2003-03-24 07:50:07 51°14.723 2°54.658 4.3 94 10.8 102370 51
2003-03-24 07:50:12 51°14.738 2°54.645 4.4 91 10.8 102380 51
2003-03-24 07:50:17 51°14.754 2°54.633 4.1 83 10.8 102380 51
2003-03-24 07:50:22 51°14.769 2°54.621 4.7 80 10.8 102380 51
2003-03-24 07:50:27 51°14.785 2°54.608 4.4 92 10.8 102380 51
2003-03-24 07:50:32 51°14.801 2°54.595 3.7 91 10.8 102370 51
2003-03-24 07:50:37 51°14.817 2°54.583 4.3 79 10.8 102370 51
2003-03-24 07:50:41 51°14.829 2°54.573 4.9 89 10.8 102370 50
2003-03-24 07:50:47 51°14.848 2°54.558 3.7 86 10.8 102370 50
2003-03-24 07:50:52 51°14.864 2°54.546 4 83 10.8 102380 51
2003-03-24 07:50:57 51°14.88 2°54.533 3.1 85 10.8 102380 51
2003-03-24 07:51:01 51°14.893 2°54.523 3.1 74 10.8 102380 51
2003-03-24 07:51:07 51°14.913 2°54.509 3.5 87 10.8 102380 51
2003-03-24 07:51:11 51°14.926 2°54.499 3.3 78 10.8 102380 52
2003-03-24 07:51:17 51°14.945 2°54.483 3.8 72 10.8 102380 52
2003-03-24 07:51:22 51°14.961 2°54.47 3.8 77 10.8 102380 52
2003-03-24 07:51:27 51°14.977 2°54.457 3.5 81 10.8 102380 52
2003-03-24 07:51:32 51°14.992 2°54.444 3.6 88 10.8 102380 52
2003-03-24 07:51:37 51°15.008 2°54.431 3.5 78 10.8 102380 52
2003-03-24 07:51:41 51°15.021 2°54.421 4.1 84 10.7 102370 52
2003-03-24 07:51:47 51°15.04 2°54.406 4.4 90 10.7 102370 52
2003-03-24 07:51:52 51°15.056 2°54.394 4.4 86 10.7 102370 52
2003-03-24 07:51:57 51°15.072 2°54.381 4.3 78 10.7 102370 52
2003-03-24 07:52:02 51°15.088 2°54.368 5.3 88 10.8 102380 52
2003-03-24 07:52:07 51°15.104 2°54.356 3.4 102 10.8 102380 52
2003-03-24 07:52:11 51°15.117 2°54.345 5.1 101 10.7 102380 52
2003-03-24 07:52:17 51°15.136 2°54.33 5.7 85 10.7 102380 52
2003-03-24 07:52:21 51°15.148 2°54.319 5.2 87 10.7 102370 53
2003-03-24 07:52:27 51°15.167 2°54.304 5.6 89 10.7 102370 53
2003-03-24 07:52:32 51°15.183 2°54.291 4.9 84 10.8 102380 53
2003-03-24 07:52:37 51°15.198 2°54.278 5.5 97 10.8 102380 53
2003-03-24 07:52:41 51°15.211 2°54.268 8.1 95 10.7 102370 53
2003-03-24 07:52:47 51°15.23 2°54.252 4.9 82 10.7 102370 53
2003-03-24 07:52:51 51°15.243 2°54.241 5.6 87 10.8 102370 53
2003-03-24 07:52:57 51°15.263 2°54.226 5.5 86 10.8 102370 53
2003-03-24 07:53:01 51°15.276 2°54.215 5 85 10.7 102380 52
2003-03-24 07:53:07 51°15.296 2°54.199 5.3 74 10.7 102380 52
2003-03-24 07:53:11 51°15.31 2°54.189 5.1 68 10.7 102370 52
2003-03-24 07:53:17 51°15.33 2°54.173 5.7 80 10.7 102370 52
2003-03-24 07:53:21 51°15.344 2°54.162 6.2 84 10.8 102370 52
2003-03-24 07:53:27 51°15.364 2°54.146 5.3 94 10.8 102370 52
2003-03-24 07:53:31 51°15.378 2°54.135 4.9 80 10.8 102370 53
2003-03-24 07:53:36 51°15.395 2°54.121 3.8 80 10.8 102370 53
2003-03-24 07:53:41 51°15.413 2°54.108 4 69 10.8 102370 53
2003-03-24 07:53:47 51°15.434 2°54.092 5 74 10.8 102370 53
2003-03-24 07:53:52 51°15.451 2°54.078 4.9 74 10.8 102370 52
2003-03-24 07:53:57 51°15.469 2°54.064 4.9 68 10.8 102370 52
2003-03-24 07:54:01 51°15.483 2°54.053 5.2 62 10.8 102370 53
2003-03-24 07:54:07 51°15.503 2°54.035 5.1 62 10.8 102370 53
2003-03-24 07:54:12 51°15.521 2°54.021 5.2 64 10.8 102380 53
2003-03-24 07:54:17 51°15.538 2°54.007 5.8 68 10.8 102380 53
2003-03-24 07:54:22 51°15.556 2°53.992 6 67 10.8 102380 54
2003-03-24 07:54:27 51°15.573 2°53.978 5.6 67 10.8 102380 54
2003-03-24 07:54:31 51°15.588 2°53.967 5 69 10.8 102380 54
2003-03-24 07:54:37 51°15.609 2°53.95 5.2 64 10.8 102380 54
2003-03-24 07:54:41 51°15.623 2°53.939 5 68 10.8 102370 54
2003-03-24 07:54:47 51°15.644 2°53.921 6 73 10.8 102370 54
2003-03-24 07:54:52 51°15.661 2°53.906 6.1 73 10.8 102380 55
2003-03-24 07:54:57 51°15.678 2°53.89 5.9 70 10.8 102380 55
2003-03-24 07:55:01 51°15.692 2°53.878 6.2 75 10.7 102380 54
2003-03-24 07:55:07 51°15.712 2°53.859 6.5 73 10.7 102380 54
2003-03-24 07:55:11 51°15.726 2°53.846 5.9 72 10.7 102380 54
2003-03-24 07:55:17 51°15.746 2°53.828 5.3 68 10.7 102380 54
2003-03-24 07:55:21 51°15.76 2°53.816 5.5 75 10.7 102380 53
2003-03-24 07:55:27 51°15.781 2°53.797 5.8 59 10.7 102380 53
2003-03-24 07:55:31 51°15.795 2°53.784 5.5 69 10.7 102380 53
2003-03-24 07:55:37 51°15.816 2°53.766 5.2 66 10.7 102380 53
2003-03-24 07:55:41 51°15.829 2°53.754 5.2 69 10.7 102380 54
2003-03-24 07:55:47 51°15.85 2°53.735 5.3 69 10.7 102380 54
2003-03-24 07:55:51 51°15.864 2°53.723 5.3 67 10.7 102380 54
2003-03-24 07:55:57 51°15.885 2°53.706 5.5 69 10.7 102380 54
2003-03-24 07:56:02 51°15.903 2°53.692 4.9 64 10.7 102380 54
2003-03-24 07:56:07 51°15.921 2°53.679 5.2 73 10.7 102380 54
2003-03-24 07:56:11 51°15.935 2°53.668 5.4 72 10.7 102380 55
2003-03-24 07:56:17 51°15.957 2°53.652 6 71 10.7 102380 55
2003-03-24 07:56:21 51°15.971 2°53.641 5.2 81 10.7 102380 54
2003-03-24 07:56:27 51°15.993 2°53.624 5.3 59 10.7 102380 54
2003-03-24 07:56:32 51°16.011 2°53.611 5 62 10.7 102380 54
2003-03-24 07:56:37 51°16.028 2°53.597 5.9 68 10.7 102380 54
2003-03-24 07:56:41 51°16.043 2°53.586 6.3 73 10.6 102380 55
2003-03-24 07:56:47 51°16.064 2°53.57 5.2 66 10.6 102380 55
2003-03-24 07:56:52 51°16.082 2°53.556 5.4 73 10.7 102380 55
2003-03-24 07:56:57 51°16.1 2°53.543 5.2 58 10.7 102380 55
2003-03-24 07:57:01 51°16.114 2°53.532 5.1 63 10.7 102370 55
2003-03-24 07:57:07 51°16.136 2°53.516 5.7 64 10.7 102370 55
2003-03-24 07:57:12 51°16.153 2°53.503 5.8 65 10.7 102380 55
2003-03-24 07:57:17 51°16.171 2°53.489 5.1 57 10.7 102380 55
2003-03-24 07:57:21 51°16.186 2°53.478 5.3 61 10.6 102380 55
2003-03-24 07:57:27 51°16.207 2°53.462 5.6 66 10.6 102380 55
2003-03-24 07:57:32 51°16.225 2°53.449 6.2 73 10.6 102380 55
2003-03-24 07:57:37 51°16.243 2°53.435 6.2 70 10.6 102380 55
2003-03-24 07:57:42 51°16.261 2°53.422 5.8 64 10.6 102380 55
2003-03-24 07:57:47 51°16.279 2°53.409 5.1 66 10.6 102380 55
2003-03-24 07:57:52 51°16.296 2°53.395 5.1 65 10.6 102380 55
2003-03-24 07:57:57 51°16.314 2°53.382 5.5 57 10.6 102380 55
2003-03-24 07:58:01 51°16.329 2°53.371 5.1 55 10.6 102380 55
2003-03-24 07:58:07 51°16.35 2°53.355 5.3 59 10.6 102380 55
2003-03-24 07:58:12 51°16.368 2°53.342 5 58 10.6 102380 56
2003-03-24 07:58:17 51°16.386 2°53.328 5.7 62 10.6 102380 56
2003-03-24 07:58:22 51°16.403 2°53.314 5.9 71 10.6 102380 56
2003-03-24 07:58:27 51°16.421 2°53.3 5.3 58 10.6 102380 56
2003-03-24 07:58:32 51°16.439 2°53.286 5.4 64 10.6 102380 56
2003-03-24 07:58:37 51°16.456 2°53.273 5.6 61 10.6 102380 56
2003-03-24 07:58:41 51°16.47 2°53.262 5.7 61 10.6 102380 57
2003-03-24 07:58:47 51°16.492 2°53.246 5.8 65 10.6 102380 57
2003-03-24 07:58:51 51°16.506 2°53.235 6.1 63 10.5 102380 57
2003-03-24 07:58:57 51°16.527 2°53.219 5.1 59 10.5 102380 57
2003-03-24 07:59:01 51°16.541 2°53.209 5.4 57 10.5 102380 57
2003-03-24 07:59:07 51°16.563 2°53.192 5.9 59 10.5 102380 57
2003-03-24 07:59:11 51°16.577 2°53.181 6.6 64 10.5 102380 57
2003-03-24 07:59:17 51°16.598 2°53.164 6.8 65 10.5 102380 57
2003-03-24 07:59:21 51°16.612 2°53.152 6.8 63 10.5 102380 57
2003-03-24 07:59:27 51°16.632 2°53.134 6.3 57 10.5 102380 57
2003-03-24 07:59:31 51°16.646 2°53.121 6.5 62 10.5 102370 57
2003-03-24 07:59:37 51°16.666 2°53.103 6.4 63 10.5 102370 57
2003-03-24 07:59:42 51°16.683 2°53.087 6.4 60 10.5 102380 57
2003-03-24 07:59:47 51°16.7 2°53.072 6.1 70 10.5 102380 57
2003-03-24 07:59:52 51°16.717 2°53.056 6.1 50 10.4 102370 57
2003-03-24 07:59:57 51°16.735 2°53.041 6.5 62 10.4 102370 57
2003-03-24 08:00:02 51°16.752 2°53.025 6.2 65 10.4 102380 58
2003-03-24 08:00:07 51°16.769 2°53.01 6.5 59 10.4 102380 58
2003-03-24 08:00:12 51°16.786 2°52.994 5.8 60 10.4 102380 57
2003-03-24 08:00:17 51°16.803 2°52.979 5.8 64 10.4 102380 57
2003-03-24 08:00:21 51°16.817 2°52.967 6.4 60 10.4 102380 58
2003-03-24 08:00:27 51°16.837 2°52.949 6.4 61 10.4 102380 58
2003-03-24 08:00:32 51°16.854 2°52.934 5.9 59 10.4 102380 58
2003-03-24 08:00:37 51°16.87 2°52.92 6.6 66 10.4 102380 58
2003-03-24 08:00:41 51°16.884 2°52.908 6.1 55 10.3 102370 58
2003-03-24 08:00:47 51°16.904 2°52.89 5.7 58 10.3 102370 58
2003-03-24 08:00:51 51°16.917 2°52.878 6.3 63 10.3 102380 58
2003-03-24 08:00:57 51°16.938 2°52.86 6.1 60 10.3 102380 58
2003-03-24 08:01:02 51°16.955 2°52.845 6.2 68 10.3 102380 58
2003-03-24 08:01:07 51°16.973 2°52.83 6.3 57 10.3 102380 58
2003-03-24 08:01:10 51°16.983 2°52.821 6.3 59 10.3 102380 58
2003-03-24 08:01:17 51°17.007 2°52.8 6.6 64 10.3 102380 58
2003-03-24 08:01:22 51°17.024 2°52.785 6.3 60 10.3 102380 58
2003-03-24 08:01:27 51°17.042 2°52.77 5.4 55 10.3 102380 58
2003-03-24 08:01:32 51°17.059 2°52.754 5.5 54 10.2 102380 58
2003-03-24 08:01:37 51°17.076 2°52.739 6 58 10.2 102380 58
2003-03-24 08:01:41 51°17.09 2°52.726 6.2 58 10.2 102380 59
2003-03-24 08:01:46 51°17.108 2°52.711 5.7 58 10.2 102380 59
2003-03-24 08:01:52 51°17.128 2°52.692 5.6 61 10.2 102380 59
2003-03-24 08:01:57 51°17.146 2°52.676 5.5 61 10.2 102380 59
2003-03-24 08:02:02 51°17.163 2°52.661 6.2 59 10.2 102370 59
2003-03-24 08:02:07 51°17.179 2°52.645 6.2 61 10.2 102370 59
2003-03-24 08:02:10 51°17.19 2°52.636 5.4 60 10.2 102370 59
2003-03-24 08:02:17 51°17.214 2°52.614 5.9 59 10.2 102370 59
2003-03-24 08:02:22 51°17.231 2°52.599 5.7 63 10.1 102380 59
2003-03-24 08:02:27 51°17.248 2°52.584 5.5 61 10.1 102380 59
2003-03-24 08:02:32 51°17.265 2°52.568 5.5 57 10.1 102380 60
2003-03-24 08:02:37 51°17.282 2°52.551 6.5 62 10.1 102380 60
2003-03-24 08:02:41 51°17.295 2°52.537 6.1 57 10.1 102380 60
2003-03-24 08:02:46 51°17.312 2°52.52 6.4 60 10.1 102380 60
2003-03-24 08:02:52 51°17.331 2°52.497 6.5 57 10.1 102370 60
2003-03-24 08:02:57 51°17.346 2°52.478 6.5 58 10.1 102370 60
2003-03-24 08:03:02 51°17.362 2°52.46 7 54 10 102370 60
2003-03-24 08:03:07 51°17.378 2°52.44 6.4 57 10 102370 60
2003-03-24 08:03:10 51°17.387 2°52.428 6.6 55 10 102370 60
2003-03-24 08:03:17 51°17.409 2°52.401 7.3 55 10 102370 60
2003-03-24 08:03:22 51°17.424 2°52.381 6.5 56 10 102370 60
2003-03-24 08:03:27 51°17.439 2°52.361 7.4 59 10 102370 60
2003-03-24 08:03:32 51°17.455 2°52.341 7.3 56 10 102370 60
2003-03-24 08:03:37 51°17.47 2°52.321 6.8 54 10 102370 60
2003-03-24 08:03:41 51°17.483 2°52.306 8 56 10 102370 61
2003-03-24 08:03:46 51°17.497 2°52.284 6.9 56 10 102370 61
2003-03-24 08:03:52 51°17.515 2°52.259 7.7 53 9.9 102370 61
2003-03-24 08:03:57 51°17.529 2°52.237 7.4 52 9.9 102370 61
2003-03-24 08:04:02 51°17.543 2°52.215 7.5 51 9.9 102370 61
2003-03-24 08:04:07 51°17.557 2°52.193 7.9 53 9.9 102370 61
2003-03-24 08:04:10 51°17.565 2°52.18 8.1 52 9.9 102370 61
2003-03-24 08:04:17 51°17.584 2°52.148 7.6 51 9.9 102370 61
2003-03-24 08:04:22 51°17.597 2°52.124 8.4 50 9.9 102370 61
2003-03-24 08:04:27 51°17.61 2°52.1 8.6 52 9.9 102370 61
2003-03-24 08:04:32 51°17.622 2°52.075 7.7 50 9.8 102370 61
2003-03-24 08:04:37 51°17.634 2°52.051 8.2 48 9.8 102370 61
2003-03-24 08:04:41 51°17.644 2°52.031 7.9 46 9.8 102370 61
2003-03-24 08:04:47 51°17.659 2°52.002 8.4 46 9.8 102370 61
2003-03-24 08:04:52 51°17.671 2°51.976 7.8 46 9.8 102360 62
2003-03-24 08:04:57 51°17.683 2°51.952 8.6 48 9.8 102360 62
2003-03-24 08:05:01 51°17.692 2°51.931 8 48 9.8 102360 62
2003-03-24 08:05:07 51°17.707 2°51.901 8.8 47 9.8 102360 62
2003-03-24 08:05:11 51°17.716 2°51.881 9 49 9.8 102360 62
2003-03-24 08:05:17 51°17.73 2°51.85 8.6 47 9.8 102360 62
2003-03-24 08:05:22 51°17.741 2°51.825 8.8 47 9.8 102360 62
2003-03-24 08:05:27 51°17.753 2°51.799 7.9 50 9.8 102360 62
2003-03-24 08:05:32 51°17.765 2°51.774 8.2 48 9.7 102360 62
2003-03-24 08:05:37 51°17.776 2°51.749 8.1 48 9.7 102360 62
2003-03-24 08:05:41 51°17.786 2°51.728 8 46 9.7 102360 62
2003-03-24 08:05:47 51°17.799 2°51.698 8.4 47 9.7 102360 62
2003-03-24 08:05:52 51°17.811 2°51.672 8 51 9.7 102360 62
2003-03-24 08:05:57 51°17.823 2°51.647 8.6 47 9.7 102360 62
2003-03-24 08:06:01 51°17.832 2°51.626 9.1 48 9.7 102360 63
2003-03-24 08:06:07 51°17.845 2°51.595 8.2 47 9.7 102360 63
2003-03-24 08:06:12 51°17.856 2°51.569 8.3 133 9.7 102360 63
2003-03-24 08:06:16 51°17.865 2°51.548 8.9 47 9.7 102360 63
2003-03-24 08:06:21 51°17.876 2°51.522 8.2 47 9.6 102360 63
2003-03-24 08:06:27 51°17.889 2°51.49 8.7 133 9.6 102360 63
2003-03-24 08:06:32 51°17.901 2°51.464 8.5 131 9.6 102360 63
2003-03-24 08:06:37 51°17.913 2°51.438 7.8 45 9.6 102360 63
2003-03-24 08:06:41 51°17.922 2°51.418 8.3 47 9.6 102360 63
2003-03-24 08:06:47 51°17.936 2°51.387 7.8 46 9.6 102360 63
2003-03-24 08:06:52 51°17.948 2°51.362 8.2 132 9.6 102360 63
2003-03-24 08:06:57 51°17.96 2°51.336 7.9 133 9.6 102360 63
2003-03-24 08:07:02 51°17.971 2°51.31 8.5 39 9.6 102360 64
2003-03-24 08:07:07 51°17.982 2°51.284 7.9 46 9.6 102360 64
2003-03-24 08:07:12 51°17.994 2°51.258 8.4 45 9.6 102360 64
2003-03-24 08:07:17 51°18.005 2°51.231 8.1 133 9.6 102360 64
2003-03-24 08:07:21 51°18.014 2°51.21 7.9 47 9.6 102360 64
2003-03-24 08:07:27 51°18.027 2°51.179 8.1 132 9.6 102360 64
2003-03-24 08:07:31 51°18.037 2°51.158 8.2 46 9.5 102360 64
2003-03-24 08:07:37 51°18.05 2°51.127 8.5 48 9.5 102360 64
2003-03-24 08:07:42 51°18.061 2°51.101 8.5 46 9.5 102360 64
2003-03-24 08:07:47 51°18.073 2°51.075 7.8 46 9.5 102360 64
2003-03-24 08:07:52 51°18.084 2°51.049 8.1 47 9.5 102360 64
2003-03-24 08:07:57 51°18.095 2°51.023 8.7 48 9.5 102360 64
2003-03-24 08:08:02 51°18.107 2°50.997 9.1 48 9.5 102360 64
2003-03-24 08:08:07 51°18.118 2°50.971 8.8 317 9.5 102360 64
2003-03-24 08:08:12 51°18.129 2°50.945 8.9 44 9.5 102360 64
2003-03-24 08:08:17 51°18.141 2°50.919 8.4 130 9.5 102360 64
2003-03-24 08:08:21 51°18.15 2°50.898 8.4 47 9.5 102360 64
2003-03-24 08:08:26 51°18.161 2°50.872 8.4 47 9.5 102360 64
2003-03-24 08:08:32 51°18.174 2°50.841 8.9 47 9.4 102360 64
2003-03-24 08:08:37 51°18.186 2°50.815 8.5 47 9.4 102360 64
2003-03-24 08:08:41 51°18.195 2°50.794 8.9 46 9.4 102360 64
2003-03-24 08:08:47 51°18.208 2°50.763 8.8 46 9.4 102360 64
2003-03-24 08:08:52 51°18.219 2°50.736 9.3 131 9.4 102360 65
2003-03-24 08:08:57 51°18.23 2°50.71 8.9 134 9.4 102360 65
2003-03-24 08:09:02 51°18.241 2°50.684 8.9 132 9.4 102360 64
2003-03-24 08:09:07 51°18.252 2°50.658 9.5 44 9.4 102360 64
2003-03-24 08:09:10 51°18.258 2°50.642 9.2 131 9.4 102360 64
2003-03-24 08:09:17 51°18.273 2°50.605 9.1 46 9.4 102360 64
2003-03-24 08:09:22 51°18.285 2°50.579 8.9 47 9.4 102360 65
2003-03-24 08:09:27 51°18.296 2°50.553 8.5 130 9.4 102360 65
2003-03-24 08:09:32 51°18.307 2°50.527 9.5 47 9.4 102360 65
2003-03-24 08:09:37 51°18.319 2°50.5 9.1 315 9.4 102360 65
2003-03-24 08:09:41 51°18.328 2°50.479 9.6 48 9.4 102360 64
2003-03-24 08:09:46 51°18.339 2°50.453 9.4 132 9.4 102360 64
2003-03-24 08:09:52 51°18.352 2°50.421 9.1 133 9.4 102360 65
2003-03-24 08:09:57 51°18.363 2°50.395 9.4 48 9.4 102360 65
2003-03-24 08:10:01 51°18.372 2°50.375 9.3 49 9.4 102360 65
2003-03-24 08:10:07 51°18.386 2°50.343 8.8 46 9.4 102360 65
2003-03-24 08:10:12 51°18.396 2°50.317 8.6 131 9.3 102360 65
2003-03-24 08:10:17 51°18.408 2°50.29 8.8 47 9.3 102360 65
2003-03-24 08:10:20 51°18.414 2°50.275 8.5 47 9.4 102360 65
2003-03-24 08:10:27 51°18.43 2°50.238 9.1 317 9.4 102360 65
2003-03-24 08:10:32 51°18.442 2°50.211 8.8 132 9.3 102360 65
2003-03-24 08:10:37 51°18.453 2°50.186 8.8 46 9.3 102360 65
2003-03-24 08:10:42 51°18.464 2°50.159 8.6 45 9.3 102360 65
2003-03-24 08:10:47 51°18.475 2°50.133 8.7 47 9.3 102360 65
2003-03-24 08:10:52 51°18.486 2°50.106 9 46 9.3 102360 65
2003-03-24 08:10:57 51°18.497 2°50.08 8.7 47 9.3 102360 65
2003-03-24 08:11:01 51°18.506 2°50.06 9 48 9.3 102360 65
2003-03-24 08:11:07 51°18.519 2°50.028 8.8 134 9.3 102360 65
2003-03-24 08:11:11 51°18.528 2°50.008 8.6 132 9.3 102360 65
2003-03-24 08:11:17 51°18.541 2°49.977 8.7 134 9.3 102360 65
2003-03-24 08:11:21 51°18.549 2°49.956 9 133 9.3 102360 65
2003-03-24 08:11:27 51°18.563 2°49.925 9.2 318 9.3 102360 65
2003-03-24 08:11:32 51°18.574 2°49.899 8.8 44 9.3 102370 66
2003-03-24 08:11:37 51°18.585 2°49.873 8.8 133 9.3 102370 66
2003-03-24 08:11:41 51°18.594 2°49.852 9.3 45 9.3 102360 66
2003-03-24 08:11:47 51°18.608 2°49.821 9.1 45 9.3 102360 66
2003-03-24 08:11:52 51°18.619 2°49.795 8.3 323 9.3 102360 66
2003-03-24 08:11:57 51°18.63 2°49.769 8.4 134 9.3 102360 66
2003-03-24 08:12:02 51°18.641 2°49.743 8.9 132 9.3 102370 66
2003-03-24 08:12:07 51°18.652 2°49.717 9 42 9.3 102370 66
2003-03-24 08:12:12 51°18.663 2°49.691 8.4 43 9.3 102370 66
2003-03-24 08:12:16 51°18.672 2°49.67 9.3 42 9.3 102370 66
2003-03-24 08:12:21 51°18.683 2°49.644 8.4 132 9.3 102370 66
2003-03-24 08:12:27 51°18.696 2°49.613 8.7 133 9.3 102370 66
2003-03-24 08:12:32 51°18.708 2°49.587 8.4 131 9.3 102370 66
2003-03-24 08:12:37 51°18.718 2°49.56 8.1 43 9.3 102370 66
2003-03-24 08:12:41 51°18.728 2°49.54 8.5 46 9.3 102370 66
2003-03-24 08:12:47 51°18.741 2°49.508 8.6 46 9.3 102370 66
2003-03-24 08:12:52 51°18.752 2°49.482 8.6 46 9.3 102370 66
2003-03-24 08:12:57 51°18.762 2°49.456 9.2 50 9.3 102370 66
2003-03-24 08:13:02 51°18.774 2°49.43 9.1 133 9.3 102370 66
2003-03-24 08:13:07 51°18.784 2°49.404 7.9 46 9.3 102370 66
2003-03-24 08:13:12 51°18.796 2°49.378 8.3 133 9.3 102370 66
2003-03-24 08:13:17 51°18.807 2°49.352 8.4 45 9.3 102370 66
2003-03-24 08:13:21 51°18.816 2°49.331 8.2 132 9.3 102370 66
2003-03-24 08:13:26 51°18.827 2°49.305 8.9 45 9.3 102370 66
2003-03-24 08:13:32 51°18.841 2°49.272 8.4 131 9.3 102370 66
2003-03-24 08:13:37 51°18.852 2°49.246 8.4 46 9.3 102370 66
2003-03-24 08:13:42 51°18.863 2°49.219 8.8 46 9.3 102370 66
2003-03-24 08:13:47 51°18.875 2°49.193 9.1 46 9.3 102370 66
2003-03-24 08:13:52 51°18.886 2°49.166 8.5 47 9.3 102360 66
2003-03-24 08:13:57 51°18.897 2°49.14 8.7 46 9.3 102360 66
2003-03-24 08:14:02 51°18.909 2°49.113 8 130 9.2 102370 66
2003-03-24 08:14:07 51°18.92 2°49.087 8.2 46 9.2 102370 66
2003-03-24 08:14:12 51°18.931 2°49.061 9 46 9.2 102370 66
2003-03-24 08:14:17 51°18.942 2°49.034 8.1 45 9.2 102370 66
2003-03-24 08:14:22 51°18.953 2°49.007 8.2 129 9.2 102370 66
2003-03-24 08:14:27 51°18.964 2°48.981 8.9 48 9.2 102370 66
2003-03-24 08:14:32 51°18.976 2°48.954 8.7 129 9.2 102370 66
2003-03-24 08:14:37 51°18.987 2°48.928 8.6 46 9.2 102370 66
2003-03-24 08:14:42 51°18.999 2°48.901 8.9 48 9.2 102360 66
2003-03-24 08:14:47 51°19.01 2°48.875 8.5 132 9.2 102360 66
2003-03-24 08:14:52 51°19.021 2°48.848 8.7 45 9.2 102370 66
2003-03-24 08:14:57 51°19.032 2°48.821 8.6 132 9.2 102370 66
2003-03-24 08:15:01 51°19.041 2°48.799 8.5 48 9.3 102360 66
2003-03-24 08:15:07 51°19.055 2°48.768 8.7 48 9.3 102360 66
2003-03-24 08:15:13 51°19.068 2°48.736 8.8 50 9.2 102360 66
2003-03-24 08:15:16 51°19.075 2°48.72 8.1 49 9.2 102360 66
2003-03-24 08:15:21 51°19.087 2°48.693 8.1 47 9.2 102360 66
2003-03-24 08:15:27 51°19.101 2°48.662 8.3 47 9.2 102360 66
2003-03-24 08:15:32 51°19.112 2°48.635 8.8 47 9.2 102360 66
2003-03-24 08:15:37 51°19.124 2°48.609 8 319 9.2 102360 66
2003-03-24 08:15:42 51°19.135 2°48.582 8.2 47 9.2 102360 66
2003-03-24 08:15:47 51°19.146 2°48.556 8.2 134 9.2 102360 66
2003-03-24 08:15:52 51°19.157 2°48.529 8 130 9.2 102360 66
2003-03-24 08:15:57 51°19.168 2°48.502 7.9 45 9.2 102360 66
2003-03-24 08:16:01 51°19.177 2°48.481 8.2 46 9.2 102360 66
2003-03-24 08:16:07 51°19.19 2°48.45 7.7 46 9.2 102360 66
2003-03-24 08:16:12 51°19.201 2°48.423 7.8 48 9.2 102360 66
2003-03-24 08:16:17 51°19.213 2°48.397 7.7 45 9.2 102360 66
2003-03-24 08:16:21 51°19.222 2°48.376 7.6 132 9.2 102360 66
2003-03-24 08:16:27 51°19.235 2°48.344 8 133 9.2 102360 66
2003-03-24 08:16:32 51°19.246 2°48.318 7.6 133 9.2 102360 66
2003-03-24 08:16:37 51°19.257 2°48.291 8.2 317 9.2 102360 66
2003-03-24 08:16:42 51°19.268 2°48.265 8.3 47 9.2 102360 66
2003-03-24 08:16:47 51°19.279 2°48.239 7.8 318 9.2 102360 66
2003-03-24 08:16:52 51°19.29 2°48.212 8.4 48 9.2 102360 67
2003-03-24 08:16:57 51°19.302 2°48.186 7.7 47 9.2 102360 67
2003-03-24 08:17:02 51°19.313 2°48.16 8.1 134 9.2 102360 67
2003-03-24 08:17:07 51°19.324 2°48.134 7.8 318 9.2 102360 67
2003-03-24 08:17:12 51°19.336 2°48.107 8.2 50 9.1 102370 67
2003-03-24 08:17:16 51°19.345 2°48.086 7.5 46 9.1 102370 67
2003-03-24 08:17:21 51°19.356 2°48.06 8.2 48 9.1 102360 67
2003-03-24 08:17:27 51°19.37 2°48.028 7.5 319 9.1 102360 67
2003-03-24 08:17:32 51°19.381 2°48.002 7.3 318 9.1 102360 67
2003-03-24 08:17:37 51°19.393 2°47.975 7.6 321 9.1 102360 67
2003-03-24 08:17:40 51°19.4 2°47.959 8.5 43 9.1 102370 67
2003-03-24 08:17:47 51°19.416 2°47.922 7.9 44 9.1 102370 67
2003-03-24 08:17:52 51°19.428 2°47.896 8.2 317 9.1 102360 67
2003-03-24 08:17:57 51°19.439 2°47.87 7.5 133 9.1 102360 67
2003-03-24 08:18:02 51°19.451 2°47.843 7.5 43 9.1 102370 67
2003-03-24 08:18:07 51°19.462 2°47.817 7.2 317 9.1 102370 67
2003-03-24 08:18:12 51°19.474 2°47.791 7.5 42 9.1 102370 67
2003-03-24 08:18:17 51°19.485 2°47.764 7.7 44 9.1 102370 67
2003-03-24 08:18:21 51°19.494 2°47.744 8 45 9.1 102370 67
2003-03-24 08:18:25 51°19.504 2°47.723 7.6 319 9.1 102370 67
2003-03-24 08:18:32 51°19.52 2°47.685 8.3 320 9.1 102370 67
2003-03-24 08:18:37 51°19.532 2°47.659 8.3 43 9.1 102370 67
2003-03-24 08:18:42 51°19.543 2°47.633 8.1 318 9.1 102370 67
2003-03-24 08:18:47 51°19.555 2°47.607 7.5 319 9.1 102370 67
2003-03-24 08:18:51 51°19.564 2°47.586 8 317 9 102370 67
2003-03-24 08:18:57 51°19.578 2°47.555 7.3 44 9 102370 67
2003-03-24 08:19:01 51°19.587 2°47.534 8.3 46 9 102370 67
2003-03-24 08:19:07 51°19.6 2°47.503 8.4 44 9 102370 67
2003-03-24 08:19:11 51°19.609 2°47.481 8.1 318 9 102360 68
2003-03-24 08:19:17 51°19.622 2°47.451 8.1 132 9 102360 68
2003-03-24 08:19:21 51°19.63 2°47.43 7.3 317 9 102370 68
2003-03-24 08:19:27 51°19.643 2°47.399 7.8 46 9 102370 68
2003-03-24 08:19:32 51°19.654 2°47.373 7.4 44 9 102370 68
2003-03-24 08:19:37 51°19.665 2°47.347 8.1 45 9 102370 68
2003-03-24 08:19:41 51°19.674 2°47.326 8 44 9 102370 68
2003-03-24 08:19:47 51°19.688 2°47.295 7.8 317 9 102370 68
2003-03-24 08:19:52 51°19.698 2°47.269 8.1 45 9 102370 68
2003-03-24 08:19:56 51°19.707 2°47.249 8 132 9 102370 68
2003-03-24 08:20:02 51°19.719 2°47.217 8.1 132 9 102370 68
2003-03-24 08:20:06 51°19.728 2°47.196 8.4 44 9 102370 68
2003-03-24 08:20:11 51°19.739 2°47.17 7.9 46 9 102370 68
2003-03-24 08:20:17 51°19.751 2°47.138 8.4 131 9 102370 68
2003-03-24 08:20:20 51°19.758 2°47.122 8 45 8.9 102360 68
2003-03-24 08:20:25 51°19.768 2°47.096 7.9 318 8.9 102360 68
2003-03-24 08:20:32 51°19.783 2°47.059 8.4 318 9 102370 68
2003-03-24 08:20:37 51°19.793 2°47.033 8.4 43 9 102370 68
2003-03-24 08:20:41 51°19.801 2°47.012 8.6 45 9 102370 68
2003-03-24 08:20:47 51°19.814 2°46.98 8.4 318 9 102370 68
2003-03-24 08:20:52 51°19.824 2°46.954 8.4 320 9 102370 68
2003-03-24 08:20:57 51°19.835 2°46.928 7.9 42 9 102370 68
2003-03-24 08:21:01 51°19.843 2°46.907 7.9 133 9 102360 68
2003-03-24 08:21:07 51°19.856 2°46.875 7.9 45 9 102360 68
2003-03-24 08:21:12 51°19.866 2°46.848 8.8 132 8.9 102360 68
2003-03-24 08:21:17 51°19.877 2°46.821 8.5 134 8.9 102360 68
2003-03-24 08:21:21 51°19.885 2°46.8 8.4 46 8.9 102360 68
2003-03-24 08:21:27 51°19.897 2°46.768 8.1 46 8.9 102360 68
2003-03-24 08:21:31 51°19.906 2°46.746 8.2 131 8.9 102360 68
2003-03-24 08:21:37 51°19.918 2°46.714 8.1 133 8.9 102360 68
2003-03-24 08:21:41 51°19.926 2°46.693 7.9 45 8.9 102360 68
2003-03-24 08:21:48 51°19.941 2°46.655 7.7 48 8.9 102360 68
2003-03-24 08:21:52 51°19.949 2°46.634 8.3 44 8.9 102360 68
2003-03-24 08:21:57 51°19.959 2°46.607 7.9 132 8.9 102360 68
2003-03-24 08:22:01 51°19.967 2°46.585 8.3 45 8.9 102360 68
2003-03-24 08:22:07 51°19.98 2°46.553 8.7 318 8.9 102360 68
2003-03-24 08:22:12 51°19.99 2°46.526 8.4 45 8.9 102360 68
2003-03-24 08:22:17 51°20 2°46.498 8.6 45 8.9 102360 68
2003-03-24 08:22:21 51°20.008 2°46.476 8.8 41 8.9 102360 68
2003-03-24 08:22:27 51°20.019 2°46.442 8.8 320 8.9 102360 68
2003-03-24 08:22:32 51°20.028 2°46.413 8.7 41 8.9 102360 68
2003-03-24 08:22:37 51°20.037 2°46.385 9.9 317 8.9 102360 68
2003-03-24 08:22:41 51°20.043 2°46.362 9 42 8.9 102360 68
2003-03-24 08:22:47 51°20.053 2°46.327 9.8 43 8.9 102360 68
2003-03-24 08:22:52 51°20.061 2°46.298 9.1 43 8.9 102360 68
2003-03-24 08:22:57 51°20.068 2°46.269 9.8 44 8.9 102360 68
2003-03-24 08:23:01 51°20.074 2°46.245 9.6 41 8.9 102360 68
2003-03-24 08:23:07 51°20.083 2°46.21 10 37 8.9 102360 68
2003-03-24 08:23:12 51°20.089 2°46.18 10 39 8.9 102360 68
2003-03-24 08:23:17 51°20.097 2°46.151 10.2 41 8.9 102360 68
2003-03-24 08:23:21 51°20.102 2°46.127 9.1 41 8.9 102360 68
2003-03-24 08:23:27 51°20.11 2°46.091 9.5 41 8.9 102360 68
2003-03-24 08:23:32 51°20.117 2°46.061 10.1 39 8.9 102360 68
2003-03-24 08:23:37 51°20.124 2°46.031 10.6 42 8.9 102360 68
2003-03-24 08:23:41 51°20.128 2°46.006 10.9 42 8.9 102360 68
2003-03-24 08:23:47 51°20.135 2°45.97 10.9 41 8.9 102360 68
2003-03-24 08:23:51 51°20.139 2°45.946 10 40 8.9 102360 68
2003-03-24 08:23:57 51°20.146 2°45.909 10 43 8.9 102360 68
2003-03-24 08:24:01 51°20.15 2°45.885 10.1 42 8.9 102360 68
2003-03-24 08:24:07 51°20.156 2°45.848 11 41 8.9 102360 68
2003-03-24 08:24:11 51°20.16 2°45.824 9.8 40 8.9 102360 68
2003-03-24 08:24:17 51°20.166 2°45.786 10.4 40 8.9 102360 68
2003-03-24 08:24:22 51°20.171 2°45.755 9.8 40 8.9 102360 68
2003-03-24 08:24:27 51°20.176 2°45.725 10.8 40 8.9 102360 68
2003-03-24 08:24:32 51°20.181 2°45.694 10.3 43 8.9 102360 68
2003-03-24 08:24:37 51°20.186 2°45.663 10.2 40 8.9 102360 68
2003-03-24 08:24:41 51°20.19 2°45.639 10.3 39 8.9 102360 68
2003-03-24 08:24:47 51°20.197 2°45.603 10.9 41 8.9 102360 68
2003-03-24 08:24:52 51°20.202 2°45.572 11 39 8.9 102360 68
2003-03-24 08:24:57 51°20.207 2°45.541 10.4 43 8.9 102360 68
2003-03-24 08:25:02 51°20.213 2°45.511 10.3 42 8.9 102360 69
2003-03-24 08:25:07 51°20.218 2°45.481 10 41 8.9 102360 69
2003-03-24 08:25:11 51°20.223 2°45.457 10.8 41 8.9 102360 69
2003-03-24 08:25:17 51°20.229 2°45.42 10.2 44 8.9 102360 69
2003-03-24 08:25:21 51°20.233 2°45.395 10.1 40 8.9 102360 68
2003-03-24 08:25:27 51°20.24 2°45.359 10.2 40 8.9 102360 68
2003-03-24 08:25:32 51°20.245 2°45.328 10.6 44 8.9 102350 68
2003-03-24 08:25:37 51°20.251 2°45.297 10.2 39 8.9 102350 68
2003-03-24 08:25:40 51°20.255 2°45.279 10 40 8.9 102350 68
2003-03-24 08:25:47 51°20.262 2°45.236 10.3 42 8.9 102350 68
2003-03-24 08:25:52 51°20.268 2°45.205 10.5 42 8.9 102350 68
2003-03-24 08:25:57 51°20.274 2°45.174 9.8 39 8.9 102350 68
2003-03-24 08:26:01 51°20.278 2°45.15 10.2 44 8.9 102350 69
2003-03-24 08:26:07 51°20.284 2°45.113 10.7 39 8.9 102350 69
2003-03-24 08:26:11 51°20.289 2°45.088 9.8 45 8.9 102350 69
2003-03-24 08:26:17 51°20.295 2°45.051 11 38 8.9 102350 69
2003-03-24 08:26:21 51°20.299 2°45.026 10.7 38 8.9 102350 68
2003-03-24 08:26:27 51°20.305 2°44.989 11 39 8.9 102350 68
2003-03-24 08:26:32 51°20.31 2°44.958 10.3 40 8.9 102360 68
2003-03-24 08:26:37 51°20.314 2°44.928 11.2 42 8.9 102360 68
2003-03-24 08:26:42 51°20.318 2°44.897 11.1 39 8.9 102350 69
2003-03-24 08:26:47 51°20.322 2°44.867 10.9 44 8.9 102350 69
2003-03-24 08:26:52 51°20.326 2°44.836 11.1 41 8.9 102360 69
2003-03-24 08:26:57 51°20.33 2°44.806 11.3 42 8.9 102360 69
2003-03-24 08:27:02 51°20.334 2°44.775 10.8 38 8.9 102360 69
2003-03-24 08:27:07 51°20.338 2°44.745 11 41 8.9 102360 69
2003-03-24 08:27:12 51°20.341 2°44.715 10.6 41 8.9 102360 69
2003-03-24 08:27:17 51°20.345 2°44.684 9.9 44 8.9 102360 69
2003-03-24 08:27:21 51°20.348 2°44.66 11.3 41 8.9 102350 69
2003-03-24 08:27:27 51°20.354 2°44.623 11.1 42 8.9 102350 69
2003-03-24 08:27:31 51°20.357 2°44.599 11.4 43 8.9 102350 69
2003-03-24 08:27:37 51°20.362 2°44.562 10 41 8.9 102350 69
2003-03-24 08:27:41 51°20.366 2°44.538 10 40 8.9 102350 69
2003-03-24 08:27:47 51°20.371 2°44.501 10.4 41 8.9 102350 69
2003-03-24 08:27:52 51°20.376 2°44.47 11.1 40 8.9 102350 69
2003-03-24 08:27:57 51°20.38 2°44.439 10.5 40 8.9 102350 69
2003-03-24 08:28:01 51°20.384 2°44.415 11.3 41 8.9 102350 69
2003-03-24 08:28:06 51°20.388 2°44.384 10.5 41 8.9 102350 69
2003-03-24 08:28:12 51°20.394 2°44.347 10.7 37 8.9 102350 69
2003-03-24 08:28:17 51°20.399 2°44.316 10.7 39 8.9 102350 69
2003-03-24 08:28:21 51°20.403 2°44.291 10.1 42 8.8 102360 69
2003-03-24 08:28:28 51°20.409 2°44.249 10.1 40 8.8 102360 69
2003-03-24 08:28:32 51°20.412 2°44.224 10.4 41 8.8 102360 69
2003-03-24 08:28:37 51°20.417 2°44.194 11 39 8.8 102360 69
2003-03-24 08:28:42 51°20.421 2°44.163 10.6 40 8.8 102350 69
2003-03-24 08:28:47 51°20.426 2°44.133 11.2 38 8.8 102350 69
2003-03-24 08:28:51 51°20.43 2°44.108 10.4 39 8.8 102350 69
2003-03-24 08:28:57 51°20.435 2°44.071 10.2 39 8.8 102350 69
2003-03-24 08:29:03 51°20.441 2°44.035 10.7 41 8.8 102350 69
2003-03-24 08:29:08 51°20.445 2°44.004 11.1 39 8.8 102350 69
2003-03-24 08:29:12 51°20.449 2°43.98 10.9 37 8.8 102350 69
2003-03-24 08:29:17 51°20.454 2°43.949 10.5 41 8.8 102350 69
2003-03-24 08:29:22 51°20.459 2°43.918 10.6 43 8.8 102350 69
2003-03-24 08:29:27 51°20.464 2°43.888 10.8 42 8.8 102350 69
2003-03-24 08:29:32 51°20.469 2°43.858 10.9 44 8.8 102350 69
2003-03-24 08:29:37 51°20.474 2°43.827 11 40 8.8 102350 69
2003-03-24 08:29:41 51°20.477 2°43.804 10.8 41 8.8 102350 69
2003-03-24 08:29:48 51°20.484 2°43.761 11.3 41 8.8 102350 69
2003-03-24 08:29:52 51°20.487 2°43.737 10.1 37 8.8 102350 69
2003-03-24 08:29:57 51°20.492 2°43.706 10 41 8.8 102350 69
2003-03-24 08:30:01 51°20.496 2°43.682 11.3 42 8.8 102350 69
2003-03-24 08:30:07 51°20.501 2°43.646 11.2 42 8.8 102350 69
2003-03-24 08:30:12 51°20.505 2°43.615 10.7 44 8.8 102350 69
2003-03-24 08:30:17 51°20.509 2°43.584 10.9 42 8.8 102350 69
2003-03-24 08:30:23 51°20.515 2°43.548 10.6 44 8.8 102350 69
2003-03-24 08:30:27 51°20.518 2°43.523 10.9 44 8.8 102350 69
2003-03-24 08:30:32 51°20.523 2°43.493 11.2 43 8.8 102350 69
2003-03-24 08:30:37 51°20.528 2°43.461 11.7 40 8.8 102350 69
2003-03-24 08:30:42 51°20.532 2°43.431 9.9 39 8.8 102340 69
2003-03-24 08:30:47 51°20.537 2°43.4 10.2 40 8.8 102340 69
2003-03-24 08:30:53 51°20.542 2°43.363 10.1 42 8.8 102340 69
2003-03-24 08:30:57 51°20.546 2°43.338 10.9 40 8.8 102340 69
2003-03-24 08:31:02 51°20.551 2°43.308 10.2 40 8.8 102340 69
2003-03-24 08:31:07 51°20.556 2°43.277 10 42 8.8 102340 69
2003-03-24 08:31:13 51°20.561 2°43.24 10.3 42 8.8 102350 69
2003-03-24 08:31:17 51°20.564 2°43.216 10.7 42 8.8 102350 69
2003-03-24 08:31:22 51°20.569 2°43.185 10.7 40 8.8 102350 69
2003-03-24 08:31:28 51°20.575 2°43.148 10.9 43 8.8 102350 69
2003-03-24 08:31:33 51°20.579 2°43.117 11 40 8.8 102350 70
2003-03-24 08:31:37 51°20.583 2°43.092 10.8 40 8.8 102350 70
2003-03-24 08:31:42 51°20.587 2°43.062 10.1 43 8.8 102350 70
2003-03-24 08:31:47 51°20.592 2°43.031 9.7 39 8.8 102350 70
2003-03-24 08:31:52 51°20.596 2°43 11.4 43 8.7 102350 70
2003-03-24 08:31:57 51°20.601 2°42.969 10.2 39 8.7 102350 70
2003-03-24 08:32:02 51°20.606 2°42.939 10.7 40 8.7 102340 70
2003-03-24 08:32:07 51°20.61 2°42.908 10.6 40 8.7 102340 70
2003-03-24 08:32:12 51°20.615 2°42.877 11.1 41 8.7 102350 70
2003-03-24 08:32:18 51°20.62 2°42.84 11 42 8.7 102350 70
2003-03-24 08:32:23 51°20.625 2°42.809 9.8 41 8.7 102340 70
2003-03-24 08:32:27 51°20.629 2°42.785 10.5 43 8.7 102340 70
2003-03-24 08:32:32 51°20.634 2°42.754 10.1 41 8.7 102350 70
2003-03-24 08:32:37 51°20.638 2°42.723 11.3 41 8.7 102350 70
2003-03-24 08:32:41 51°20.642 2°42.698 10.5 44 8.7 102350 70
2003-03-24 08:32:47 51°20.647 2°42.661 10.2 41 8.7 102350 70
2003-03-24 08:32:52 51°20.652 2°42.63 10.6 40 8.7 102340 70
2003-03-24 08:32:57 51°20.657 2°42.599 11.2 39 8.7 102340 70
2003-03-24 08:33:01 51°20.66 2°42.574 11.1 39 8.7 102350 71
2003-03-24 08:33:08 51°20.667 2°42.531 11 40 8.7 102350 71
2003-03-24 08:33:12 51°20.671 2°42.506 10.3 40 8.7 102340 71
2003-03-24 08:33:17 51°20.676 2°42.475 10.8 39 8.7 102340 71
2003-03-24 08:33:21 51°20.679 2°42.45 11.2 41 8.7 102340 71
2003-03-24 08:33:27 51°20.685 2°42.412 10.8 38 8.7 102340 71
2003-03-24 08:33:32 51°20.69 2°42.381 10.7 40 8.7 102340 71
2003-03-24 08:33:37 51°20.694 2°42.35 10.5 41 8.7 102340 71
2003-03-24 08:33:43 51°20.7 2°42.313 9.9 38 8.6 102340 71
2003-03-24 08:33:47 51°20.704 2°42.288 10.1 39 8.6 102340 71
2003-03-24 08:33:52 51°20.709 2°42.257 10.6 36 8.7 102350 71
2003-03-24 08:33:57 51°20.713 2°42.225 10.9 37 8.7 102350 71
2003-03-24 08:34:01 51°20.717 2°42.201 11.3 39 8.6 102340 71
2003-03-24 08:34:08 51°20.724 2°42.157 11.6 42 8.6 102340 71
2003-03-24 08:34:12 51°20.728 2°42.132 11.2 39 8.6 102340 72
2003-03-24 08:34:17 51°20.733 2°42.101 11.6 37 8.6 102340 72
2003-03-24 08:34:22 51°20.738 2°42.069 10.1 37 8.6 102350 72
2003-03-24 08:34:28 51°20.744 2°42.032 11 40 8.6 102350 72
2003-03-24 08:34:33 51°20.749 2°42.001 10.4 38 8.6 102340 72
2003-03-24 08:34:37 51°20.753 2°41.976 10.9 39 8.6 102340 72
2003-03-24 08:34:42 51°20.758 2°41.944 11.2 37 8.6 102340 72
2003-03-24 08:34:48 51°20.766 2°41.908 10.5 42 8.6 102340 72
2003-03-24 08:34:53 51°20.772 2°41.877 10 40 8.6 102340 72
2003-03-24 08:34:57 51°20.778 2°41.853 10.2 44 8.6 102340 72
2003-03-24 08:35:03 51°20.786 2°41.817 9.9 39 8.6 102350 72
2003-03-24 08:35:07 51°20.792 2°41.793 10.1 42 8.6 102350 72
2003-03-24 08:35:12 51°20.799 2°41.763 10.4 40 8.6 102350 72
2003-03-24 08:35:17 51°20.808 2°41.734 9.9 316 8.6 102350 72
2003-03-24 08:35:22 51°20.817 2°41.705 9.1 319 8.6 102340 72
2003-03-24 08:35:28 51°20.829 2°41.672 9.3 131 8.6 102340 72
2003-03-24 08:35:33 51°20.84 2°41.646 9.1 45 8.6 102350 73
2003-03-24 08:35:37 51°20.85 2°41.626 8.2 51 8.6 102350 73
2003-03-24 08:35:42 51°20.864 2°41.602 7.5 51 8.6 102350 73
2003-03-24 08:35:47 51°20.878 2°41.581 6.4 56 8.6 102350 73
2003-03-24 08:35:53 51°20.897 2°41.559 6.8 59 8.5 102350 73
2003-03-24 08:35:57 51°20.911 2°41.545 5.1 55 8.5 102350 73
2003-03-24 08:36:02 51°20.928 2°41.531 5.5 58 8.5 102350 73
2003-03-24 08:36:08 51°20.951 2°41.518 3.9 65 8.5 102350 73
2003-03-24 08:36:12 51°20.966 2°41.511 3.6 61 8.6 102360 73
2003-03-24 08:36:17 51°20.985 2°41.504 2.7 63 8.6 102360 73
2003-03-24 08:36:23 51°21.008 2°41.499 3.2 68 8.5 102360 73
2003-03-24 08:36:28 51°21.027 2°41.496 2.9 61 8.5 102360 73
2003-03-24 08:36:32 51°21.043 2°41.493 2.9 59 8.5 102370 73
2003-03-24 08:36:37 51°21.062 2°41.492 2.7 47 8.5 102370 73
2003-03-24 08:36:43 51°21.086 2°41.489 2.4 53 8.5 102370 73
2003-03-24 08:36:48 51°21.106 2°41.487 2.3 50 8.5 102370 73
2003-03-24 08:36:52 51°21.121 2°41.485 2.3 60 8.6 102370 73
2003-03-24 08:36:57 51°21.141 2°41.483 2.9 48 8.6 102370 73
2003-03-24 08:37:02 51°21.161 2°41.481 2.8 63 8.6 102370 73
2003-03-24 08:37:07 51°21.181 2°41.479 2.3 62 8.6 102370 73
2003-03-24 08:37:11 51°21.197 2°41.477 2.6 54 8.6 102370 73
2003-03-24 08:37:17 51°21.221 2°41.475 2.6 51 8.6 102370 73
2003-03-24 08:37:22 51°21.241 2°41.472 2.4 58 8.6 102370 74
2003-03-24 08:37:27 51°21.261 2°41.47 2.5 58 8.6 102370 74
2003-03-24 08:37:32 51°21.28 2°41.469 2.5 50 8.6 102370 74
2003-03-24 08:37:37 51°21.3 2°41.466 2.4 35 8.6 102370 74
2003-03-24 08:37:42 51°21.32 2°41.464 2.9 60 8.6 102370 74
2003-03-24 08:37:48 51°21.344 2°41.462 2.9 43 8.6 102370 74
2003-03-24 08:37:53 51°21.363 2°41.46 2.7 61 8.6 102370 74
2003-03-24 08:37:57 51°21.379 2°41.458 2.7 45 8.6 102370 74
2003-03-24 08:38:02 51°21.399 2°41.457 2.7 47 8.6 102370 74
2003-03-24 08:38:08 51°21.423 2°41.455 2.9 43 8.6 102370 74
2003-03-24 08:38:12 51°21.44 2°41.453 2.2 319 8.6 102370 73
2003-03-24 08:38:17 51°21.46 2°41.45 2.4 317 8.6 102370 73
2003-03-24 08:38:22 51°21.48 2°41.449 2.3 63 8.6 102370 74
2003-03-24 08:38:27 51°21.5 2°41.447 2.7 128 8.6 102370 74
2003-03-24 08:38:32 51°21.52 2°41.445 2.4 60 8.6 102370 73
2003-03-24 08:38:37 51°21.54 2°41.443 3.2 51 8.6 102370 73
2003-03-24 08:38:41 51°21.556 2°41.441 2.9 57 8.7 102370 73
2003-03-24 08:38:48 51°21.584 2°41.439 2.5 56 8.7 102370 73
2003-03-24 08:38:52 51°21.6 2°41.437 2.4 58 8.7 102370 73
2003-03-24 08:38:57 51°21.62 2°41.436 2.7 55 8.7 102370 73
2003-03-24 08:39:01 51°21.636 2°41.434 2.5 52 8.7 102370 73
2003-03-24 08:39:08 51°21.664 2°41.432 2.8 50 8.7 102370 73
2003-03-24 08:39:12 51°21.68 2°41.432 2.8 48 8.7 102370 73
2003-03-24 08:39:17 51°21.7 2°41.43 2.2 63 8.7 102370 73
2003-03-24 08:39:21 51°21.716 2°41.429 2.5 317 8.7 102370 73
2003-03-24 08:39:27 51°21.74 2°41.427 3.3 62 8.7 102370 73
2003-03-24 08:39:33 51°21.764 2°41.426 3 64 8.7 102370 73
2003-03-24 08:39:37 51°21.78 2°41.425 2.7 52 8.7 102370 73
2003-03-24 08:39:42 51°21.8 2°41.424 2.6 60 8.7 102370 73
2003-03-24 08:39:47 51°21.82 2°41.422 2.4 50 8.7 102370 73
2003-03-24 08:39:52 51°21.84 2°41.421 2.8 56 8.7 102370 73
2003-03-24 08:39:58 51°21.864 2°41.418 2.8 46 8.7 102370 73
2003-03-24 08:40:02 51°21.88 2°41.417 3 52 8.7 102370 73
2003-03-24 08:40:08 51°21.904 2°41.415 2.6 56 8.7 102370 73
2003-03-24 08:40:12 51°21.92 2°41.414 2.6 62 8.7 102370 73
2003-03-24 08:40:17 51°21.94 2°41.413 3.1 54 8.7 102370 73
2003-03-24 08:40:23 51°21.965 2°41.412 2.9 62 8.7 102370 73
2003-03-24 08:40:27 51°21.981 2°41.41 2.7 50 8.7 102370 73
2003-03-24 08:40:32 51°22.001 2°41.409 2.9 56 8.7 102370 73
2003-03-24 08:40:37 51°22.021 2°41.408 2.8 56 8.7 102370 73
2003-03-24 08:40:41 51°22.037 2°41.407 2.4 64 8.8 102370 73
2003-03-24 08:40:48 51°22.065 2°41.406 2.4 66 8.8 102370 73
2003-03-24 08:40:52 51°22.082 2°41.405 2.7 57 8.8 102370 73
2003-03-24 08:40:57 51°22.102 2°41.404 3 55 8.8 102370 73
2003-03-24 08:41:01 51°22.118 2°41.403 2.5 53 8.8 102370 73
2003-03-24 08:41:08 51°22.145 2°41.401 3.1 53 8.8 102370 73
2003-03-24 08:41:12 51°22.161 2°41.401 2.6 57 8.8 102370 73
2003-03-24 08:41:17 51°22.181 2°41.399 2.8 55 8.8 102370 73
2003-03-24 08:41:22 51°22.201 2°41.398 3 52 8.8 102370 73
2003-03-24 08:41:27 51°22.221 2°41.397 3.1 78 8.8 102370 73
2003-03-24 08:41:33 51°22.246 2°41.396 2.8 75 8.8 102370 73
2003-03-24 08:41:37 51°22.262 2°41.395 3 66 8.8 102370 73
2003-03-24 08:41:42 51°22.282 2°41.394 2.6 49 8.8 102370 73
2003-03-24 08:41:48 51°22.307 2°41.394 2.1 54 8.8 102370 73
2003-03-24 08:41:52 51°22.323 2°41.394 1.9 65 8.8 102370 73
2003-03-24 08:41:57 51°22.344 2°41.397 0.8 49 8.8 102370 73
2003-03-24 08:42:01 51°22.36 2°41.402 0.6 49 8.8 102370 73
2003-03-24 08:42:07 51°22.383 2°41.411 0.4 354 8.8 102370 73
2003-03-24 08:42:12 51°22.402 2°41.421 0.6 315 8.8 102370 73
2003-03-24 08:42:18 51°22.424 2°41.436 1 308 8.8 102370 73
2003-03-24 08:42:21 51°22.435 2°41.445 1.4 270 8.8 102370 73
2003-03-24 08:42:27 51°22.455 2°41.463 2.1 294 8.8 102370 73
2003-03-24 08:42:33 51°22.476 2°41.483 2.2 280 8.8 102370 73
2003-03-24 08:42:37 51°22.489 2°41.496 2.5 282 8.8 102370 73
2003-03-24 08:42:43 51°22.509 2°41.517 2.5 289 8.8 102370 72
2003-03-24 08:42:48 51°22.525 2°41.536 2.8 275 8.8 102370 72
2003-03-24 08:42:53 51°22.541 2°41.554 3.1 278 8.8 102370 72
2003-03-24 08:42:57 51°22.554 2°41.57 3.5 275 8.8 102370 72
2003-03-24 08:43:02 51°22.569 2°41.589 3.5 278 8.8 102370 72
2003-03-24 08:43:07 51°22.585 2°41.609 2.2 287 8.8 102370 72
2003-03-24 08:43:12 51°22.601 2°41.628 2.9 277 8.8 102370 72
2003-03-24 08:43:18 51°22.619 2°41.654 3.3 279 8.8 102370 72
2003-03-24 08:43:23 51°22.634 2°41.674 3.1 280 8.8 102370 72
2003-03-24 08:43:27 51°22.646 2°41.692 3.3 277 8.8 102370 72
2003-03-24 08:43:33 51°22.664 2°41.716 3.6 269 8.7 102370 73
2003-03-24 08:43:37 51°22.675 2°41.734 4 279 8.7 102370 73
2003-03-24 08:43:42 51°22.69 2°41.755 3.6 288 8.7 102360 73
2003-03-24 08:43:48 51°22.707 2°41.782 3.6 276 8.7 102360 73
2003-03-24 08:43:52 51°22.719 2°41.799 3.7 278 8.7 102360 73
2003-03-24 08:43:57 51°22.733 2°41.822 3.7 278 8.7 102360 73
2003-03-24 08:44:02 51°22.749 2°41.844 4.3 281 8.6 102360 73
2003-03-24 08:44:08 51°22.767 2°41.871 4 276 8.6 102360 73
2003-03-24 08:44:13 51°22.782 2°41.893 4.6 274 8.6 102360 73
2003-03-24 08:44:17 51°22.795 2°41.911 4 290 8.6 102360 73
2003-03-24 08:44:22 51°22.811 2°41.932 3.8 280 8.6 102360 73
2003-03-24 08:44:28 51°22.829 2°41.958 4 279 8.6 102360 73
2003-03-24 08:44:32 51°22.84 2°41.976 4.2 277 8.6 102360 74
2003-03-24 08:44:37 51°22.854 2°41.998 3.7 280 8.6 102360 74
2003-03-24 08:44:43 51°22.871 2°42.025 3.9 279 8.5 102360 74
2003-03-24 08:44:48 51°22.886 2°42.047 3.8 276 8.5 102360 74
2003-03-24 08:44:52 51°22.897 2°42.065 3.7 264 8.5 102360 74
2003-03-24 08:44:57 51°22.911 2°42.087 3.4 281 8.5 102360 74
2003-03-24 08:45:02 51°22.926 2°42.108 3.5 284 8.5 102360 74
2003-03-24 08:45:07 51°22.94 2°42.13 3.1 280 8.5 102360 74
2003-03-24 08:45:13 51°22.956 2°42.157 3.8 279 8.5 102360 74
2003-03-24 08:45:17 51°22.967 2°42.175 3.8 275 8.5 102360 74
2003-03-24 08:45:22 51°22.982 2°42.196 4.1 270 8.5 102360 74
2003-03-24 08:45:28 51°22.999 2°42.222 3.8 279 8.5 102360 74
2003-03-24 08:45:32 51°23.011 2°42.239 4 282 8.5 102360 74
2003-03-24 08:45:37 51°23.025 2°42.261 3.5 274 8.5 102360 74
2003-03-24 08:45:43 51°23.042 2°42.287 3.5 281 8.4 102360 74
2003-03-24 08:45:48 51°23.056 2°42.309 4.6 275 8.4 102360 74
2003-03-24 08:45:52 51°23.067 2°42.327 3.8 281 8.4 102360 74
2003-03-24 08:45:57 51°23.081 2°42.349 4.4 279 8.4 102360 74
2003-03-24 08:46:02 51°23.096 2°42.37 4.5 273 8.4 102360 74
2003-03-24 08:46:08 51°23.112 2°42.396 3.9 277 8.4 102360 74
2003-03-24 08:46:13 51°23.127 2°42.416 3.4 283 8.4 102360 74
2003-03-24 08:46:17 51°23.14 2°42.433 4 275 8.4 102360 74
2003-03-24 08:46:22 51°23.155 2°42.453 3.5 277 8.4 102360 75
2003-03-24 08:46:28 51°23.174 2°42.475 2.9 281 8.4 102360 75
2003-03-24 08:46:32 51°23.187 2°42.49 3.2 276 8.4 102360 75
2003-03-24 08:46:38 51°23.206 2°42.511 3.1 287 8.4 102360 75
2003-03-24 08:46:43 51°23.222 2°42.529 2.7 276 8.3 102360 75
2003-03-24 08:46:48 51°23.239 2°42.545 2.5 295 8.3 102360 75
2003-03-24 08:46:52 51°23.252 2°42.558 2.3 281 8.3 102360 75
2003-03-24 08:46:57 51°23.27 2°42.571 2.4 275 8.3 102360 75
2003-03-24 08:47:03 51°23.292 2°42.588 1.6 289 8.3 102360 75
2003-03-24 08:47:07 51°23.306 2°42.598 1.5 300 8.3 102360 75
2003-03-24 08:47:12 51°23.325 2°42.611 1.3 286 8.3 102360 75
2003-03-24 08:47:17 51°23.344 2°42.621 1.4 308 8.3 102360 75
2003-03-24 08:47:23 51°23.367 2°42.633 1.1 317 8.3 102360 75
2003-03-24 08:47:27 51°23.382 2°42.64 0.8 338 8.3 102360 75
2003-03-24 08:47:32 51°23.401 2°42.649 1.2 323 8.3 102360 75
2003-03-24 08:47:38 51°23.423 2°42.659 1.2 31 8.3 102360 75
2003-03-24 08:47:41 51°23.435 2°42.662 1.2 6 8.3 102360 75
2003-03-24 08:47:47 51°23.458 2°42.67 1.5 45 8.3 102360 75
2003-03-24 08:47:53 51°23.482 2°42.674 1.5 46 8.3 102360 75
2003-03-24 08:47:57 51°23.498 2°42.675 2.2 52 8.3 102360 75
2003-03-24 08:48:03 51°23.521 2°42.674 2.1 67 8.3 102360 75
2003-03-24 08:48:08 51°23.541 2°42.673 3.3 64 8.3 102360 75
2003-03-24 08:48:12 51°23.556 2°42.671 3.2 64 8.3 102360 75
2003-03-24 08:48:17 51°23.576 2°42.669 3.7 58 8.3 102360 75
2003-03-24 08:48:22 51°23.595 2°42.665 3.8 60 8.3 102360 75
2003-03-24 08:48:27 51°23.615 2°42.66 4.1 54 8.3 102360 75
2003-03-24 08:48:32 51°23.635 2°42.654 4 59 8.4 102360 75
2003-03-24 08:48:37 51°23.654 2°42.645 5.1 50 8.4 102360 75
2003-03-24 08:48:42 51°23.673 2°42.637 4.7 55 8.4 102360 75
2003-03-24 08:48:47 51°23.692 2°42.626 4.9 50 8.4 102360 75
2003-03-24 08:48:52 51°23.711 2°42.616 5.8 56 8.4 102360 75
2003-03-24 08:48:58 51°23.732 2°42.601 5 51 8.4 102360 75
2003-03-24 08:49:02 51°23.747 2°42.591 5.2 51 8.4 102350 75
2003-03-24 08:49:08 51°23.768 2°42.574 5.3 50 8.4 102350 75
2003-03-24 08:49:12 51°23.783 2°42.564 5.6 132 8.5 102360 75
2003-03-24 08:49:18 51°23.803 2°42.545 6.1 54 8.5 102360 75
2003-03-24 08:49:21 51°23.814 2°42.536 5.3 47 8.5 102350 75
2003-03-24 08:49:28 51°23.838 2°42.514 6.8 48 8.5 102350 75
2003-03-24 08:49:32 51°23.852 2°42.502 6.2 131 8.5 102350 75
2003-03-24 08:49:37 51°23.87 2°42.486 5.9 61 8.5 102350 75
2003-03-24 08:49:43 51°23.891 2°42.468 6.2 55 8.5 102350 75
2003-03-24 08:49:47 51°23.905 2°42.455 7 52 8.5 102350 75
2003-03-24 08:49:52 51°23.922 2°42.439 6.4 54 8.5 102350 75
2003-03-24 08:49:57 51°23.939 2°42.424 6.2 56 8.5 102350 75
2003-03-24 08:50:01 51°23.953 2°42.411 6.1 62 8.5 102350 75
2003-03-24 08:50:07 51°23.974 2°42.392 6.2 64 8.5 102350 75
2003-03-24 08:50:12 51°23.991 2°42.376 6.7 57 8.6 102350 74
2003-03-24 08:50:17 51°24.009 2°42.361 6 62 8.6 102350 74
2003-03-24 08:50:22 51°24.026 2°42.345 6 70 8.6 102350 74
2003-03-24 08:50:27 51°24.044 2°42.329 6.7 65 8.6 102350 74
2003-03-24 08:50:32 51°24.061 2°42.314 6.7 66 8.6 102350 74
2003-03-24 08:50:37 51°24.079 2°42.299 7 63 8.6 102350 74
2003-03-24 08:50:41 51°24.093 2°42.287 6.5 61 8.6 102350 74
2003-03-24 08:50:48 51°24.117 2°42.265 9.5 67 8.6 102350 74
2003-03-24 08:50:52 51°24.131 2°42.253 7.9 60 8.6 102350 74
2003-03-24 08:50:57 51°24.149 2°42.238 6.9 69 8.6 102350 74
2003-03-24 08:51:01 51°24.162 2°42.226 8 73 8.6 102350 73
2003-03-24 08:51:07 51°24.183 2°42.208 8.8 70 8.6 102350 73
2003-03-24 08:51:12 51°24.201 2°42.193 9.1 55 8.6 102350 73
2003-03-24 08:51:17 51°24.219 2°42.178 6.8 55 8.6 102350 73
2003-03-24 08:51:23 51°24.241 2°42.16 6.5 58 8.7 102350 72
2003-03-24 08:51:28 51°24.258 2°42.146 7 56 8.7 102350 72
2003-03-24 08:51:32 51°24.272 2°42.135 6.5 64 8.7 102350 71
2003-03-24 08:51:37 51°24.29 2°42.12 6.9 70 8.7 102350 71
2003-03-24 08:51:43 51°24.311 2°42.102 6.8 72 8.8 102350 71
2003-03-24 08:51:47 51°24.325 2°42.09 5.6 49 8.8 102350 71
2003-03-24 08:51:52 51°24.342 2°42.075 7 59 8.8 102350 71
2003-03-24 08:51:57 51°24.36 2°42.06 6.4 62 8.8 102350 71
2003-03-24 08:52:02 51°24.377 2°42.045 6.5 66 8.8 102350 71
2003-03-24 08:52:08 51°24.398 2°42.028 6.7 59 8.8 102350 71
2003-03-24 08:52:12 51°24.412 2°42.016 7.1 63 8.9 102350 71
2003-03-24 08:52:17 51°24.429 2°42.002 6.7 64 8.9 102350 71
2003-03-24 08:52:23 51°24.451 2°41.985 7.2 61 8.9 102350 71
2003-03-24 08:52:27 51°24.465 2°41.973 6.7 63 8.9 102350 71
2003-03-24 08:52:33 51°24.487 2°41.957 6.2 62 8.9 102350 71
2003-03-24 08:52:37 51°24.501 2°41.946 6.1 63 8.9 102350 71
2003-03-24 08:52:43 51°24.522 2°41.93 7.2 68 8.9 102350 71
2003-03-24 08:52:48 51°24.54 2°41.916 6.3 62 8.9 102350 71
2003-03-24 08:52:52 51°24.553 2°41.905 7 63 8.9 102350 71
2003-03-24 08:52:57 51°24.571 2°41.891 5.9 62 8.9 102350 71
2003-03-24 08:53:03 51°24.592 2°41.875 6.3 58 8.9 102350 71
2003-03-24 08:53:08 51°24.609 2°41.861 6.3 67 8.9 102350 71
2003-03-24 08:53:12 51°24.624 2°41.85 7 62 8.9 102350 71
2003-03-24 08:53:17 51°24.641 2°41.837 6.7 61 8.9 102350 71
2003-03-24 08:53:22 51°24.659 2°41.823 6.9 62 8.9 102350 71
2003-03-24 08:53:27 51°24.677 2°41.81 6.8 64 8.9 102350 71
2003-03-24 08:53:33 51°24.698 2°41.794 6.5 61 8.9 102350 71
2003-03-24 08:53:37 51°24.713 2°41.784 6.9 58 8.9 102350 71
2003-03-24 08:53:43 51°24.734 2°41.768 6.3 61 8.9 102350 71
2003-03-24 08:53:48 51°24.752 2°41.756 6.4 62 8.9 102350 71
2003-03-24 08:53:52 51°24.767 2°41.745 6.7 64 9 102350 71
2003-03-24 08:53:57 51°24.785 2°41.733 6 57 9 102350 71
2003-03-24 08:54:03 51°24.807 2°41.717 6.6 60 9 102350 71
2003-03-24 08:54:07 51°24.822 2°41.706 6.7 67 9 102350 71
2003-03-24 08:54:12 51°24.84 2°41.694 6.9 70 9 102350 71
2003-03-24 08:54:17 51°24.858 2°41.68 6.6 57 9 102350 71
2003-03-24 08:54:22 51°24.875 2°41.667 5.9 64 9 102350 71
2003-03-24 08:54:28 51°24.897 2°41.651 6.8 61 9 102350 71
2003-03-24 08:54:33 51°24.915 2°41.638 5.5 64 9 102350 71
2003-03-24 08:54:37 51°24.929 2°41.627 6 62 9 102350 71
2003-03-24 08:54:42 51°24.947 2°41.614 6.6 64 9 102350 71
2003-03-24 08:54:48 51°24.969 2°41.598 7 63 9 102350 71
2003-03-24 08:54:53 51°24.987 2°41.584 6.4 58 9 102350 71
2003-03-24 08:54:57 51°25.001 2°41.573 6.4 60 9 102350 71
2003-03-24 08:55:02 51°25.019 2°41.56 6.9 65 9 102350 70
2003-03-24 08:55:07 51°25.037 2°41.547 7.8 67 9 102350 70
2003-03-24 08:55:13 51°25.058 2°41.53 6.3 67 9 102350 70
2003-03-24 08:55:17 51°25.073 2°41.519 7.1 67 9 102350 70
2003-03-24 08:55:22 51°25.091 2°41.506 6.4 68 9 102350 70
2003-03-24 08:55:28 51°25.112 2°41.49 6.1 67 9 102350 70
2003-03-24 08:55:33 51°25.13 2°41.477 6 66 9 102350 70
2003-03-24 08:55:37 51°25.144 2°41.466 6.3 69 9 102350 70
2003-03-24 08:55:41 51°25.159 2°41.455 6.8 63 9 102350 70
2003-03-24 08:55:47 51°25.18 2°41.439 6.6 67 9 102350 70
2003-03-24 08:55:52 51°25.198 2°41.425 6.9 67 9 102350 70
2003-03-24 08:55:57 51°25.216 2°41.411 6.9 61 9 102350 70
2003-03-24 08:56:02 51°25.234 2°41.398 7.3 64 9 102350 70
2003-03-24 08:56:08 51°25.256 2°41.382 6.9 65 9 102350 70
2003-03-24 08:56:12 51°25.27 2°41.371 6.2 66 9 102350 70
2003-03-24 08:56:17 51°25.289 2°41.358 7.1 61 9 102350 70
2003-03-24 08:56:23 51°25.311 2°41.341 6.5 58 9 102350 70
2003-03-24 08:56:28 51°25.329 2°41.328 6.8 62 9 102350 70
2003-03-24 08:56:32 51°25.343 2°41.317 6.4 62 9 102340 70
2003-03-24 08:56:37 51°25.361 2°41.304 7.5 65 9 102340 70
2003-03-24 08:56:42 51°25.379 2°41.29 7.1 68 9 102350 70
2003-03-24 08:56:47 51°25.396 2°41.277 7.7 65 9 102350 70
2003-03-24 08:56:52 51°25.415 2°41.263 7.1 64 9 102340 70
2003-03-24 08:56:58 51°25.437 2°41.247 7.6 61 9 102340 70
2003-03-24 08:57:03 51°25.455 2°41.234 6.1 72 9 102350 70